createdAt,value
2019-04-10T00:00:52.992Z,9.99
2019-04-10T00:03:31.195Z,9.97
2019-04-10T00:05:52.268Z,9.75
2019-04-10T00:08:21.706Z,9.60
2019-04-10T00:10:50.631Z,9.59
2019-04-10T00:13:19.196Z,9.55
2019-04-10T00:15:48.711Z,9.42
2019-04-10T00:18:17.996Z,9.37
2019-04-10T00:20:47.478Z,9.35
2019-04-10T00:23:17.278Z,9.42
2019-04-10T00:25:45.916Z,9.55
2019-04-10T00:28:14.965Z,9.61
2019-04-10T00:30:43.715Z,9.38
2019-04-10T00:33:12.350Z,9.41
2019-04-10T00:35:40.927Z,9.43
2019-04-10T00:38:09.477Z,9.26
2019-04-10T00:40:38.015Z,9.21
2019-04-10T00:43:06.713Z,9.09
2019-04-10T00:45:35.623Z,9.03
2019-04-10T00:48:04.344Z,8.99
2019-04-10T00:50:32.986Z,8.95
2019-04-10T00:53:01.527Z,9.08
2019-04-10T00:55:30.205Z,9.05
2019-04-10T00:57:58.804Z,9.02
2019-04-10T01:00:27.394Z,9.15
2019-04-10T01:02:56.830Z,9.15
2019-04-10T01:05:26.980Z,8.90
2019-04-10T01:07:56.037Z,8.91
2019-04-10T01:10:24.708Z,8.85
2019-04-10T01:12:54.220Z,8.74
2019-04-10T01:15:23.086Z,8.63
2019-04-10T01:17:52.759Z,8.58
2019-04-10T01:20:21.727Z,8.39
2019-04-10T01:22:50.204Z,8.28
2019-04-10T01:25:18.770Z,8.43
2019-04-10T01:27:48.002Z,8.60
2019-04-10T01:30:18.077Z,8.67
2019-04-10T01:32:46.866Z,8.81
2019-04-10T01:35:16.137Z,8.82
2019-04-10T01:37:49.453Z,8.77
2019-04-10T01:40:15.080Z,8.73
2019-04-10T01:42:44.492Z,8.60
2019-04-10T01:45:15.227Z,8.65
2019-04-10T01:47:43.897Z,8.65
2019-04-10T01:50:12.617Z,8.46
2019-04-10T01:52:41.447Z,8.49
2019-04-10T01:55:21.100Z,8.51
2019-04-10T01:57:40.824Z,8.55
2019-04-10T02:00:11.682Z,8.57
2019-04-10T02:02:41.951Z,8.57
2019-04-10T02:05:10.605Z,8.64
2019-04-10T02:07:40.284Z,8.62
2019-04-10T02:10:10.045Z,8.67
2019-04-10T02:12:38.926Z,8.69
2019-04-10T02:15:11.211Z,8.54
2019-04-10T02:17:38.976Z,8.51
2019-04-10T02:20:10.533Z,8.46
2019-04-10T02:22:39.141Z,8.40
2019-04-10T02:25:07.956Z,8.24
2019-04-10T02:27:36.570Z,8.16
2019-04-10T02:30:09.733Z,8.11
2019-04-10T02:32:39.329Z,8.08
2019-04-10T02:35:13.159Z,8.12
2019-04-10T02:37:39.597Z,8.15
2019-04-10T02:40:10.196Z,8.23
2019-04-10T02:42:41.110Z,8.32
2019-04-10T02:45:10.295Z,8.42
2019-04-10T02:47:39.138Z,8.33
2019-04-10T02:50:10.070Z,8.20
2019-04-10T02:52:41.160Z,8.06
2019-04-10T02:55:09.902Z,8.06
2019-04-10T02:57:39.561Z,7.85
2019-04-10T03:00:08.719Z,7.83
2019-04-10T03:02:41.039Z,7.93
2019-04-10T03:05:09.538Z,7.64
2019-04-10T03:07:40.245Z,7.55
2019-04-10T03:10:23.253Z,7.66
2019-04-10T03:12:40.954Z,7.65
2019-04-10T03:15:12.339Z,7.76
2019-04-10T03:17:40.735Z,7.81
2019-04-10T03:20:10.030Z,7.97
2019-04-10T03:22:38.882Z,7.80
2019-04-10T03:25:08.874Z,7.75
2019-04-10T03:27:38.682Z,7.76
2019-04-10T03:30:10.073Z,7.65
2019-04-10T03:32:48.025Z,7.61
2019-04-10T03:35:32.476Z,7.62
2019-04-10T03:38:01.535Z,7.63
2019-04-10T03:40:31.268Z,7.64
2019-04-10T03:42:59.918Z,7.51
2019-04-10T03:45:28.601Z,7.47
2019-04-10T03:47:57.967Z,7.51
2019-04-10T03:50:27.760Z,7.47
2019-04-10T03:52:56.475Z,7.48
2019-04-10T03:55:25.189Z,7.62
2019-04-10T03:57:53.833Z,7.47
2019-04-10T04:00:22.542Z,7.28
2019-04-10T04:02:51.823Z,7.24
2019-04-10T04:05:20.484Z,7.09
2019-04-10T04:07:49.033Z,6.73
2019-04-10T04:10:18.367Z,6.61
2019-04-10T04:12:46.952Z,6.54
2019-04-10T04:15:15.743Z,6.52
2019-04-10T04:17:44.459Z,6.60
2019-04-10T04:20:13.291Z,6.79
2019-04-10T04:22:41.831Z,6.91
2019-04-10T04:25:10.839Z,7.02
2019-04-10T04:27:39.831Z,7.05
2019-04-10T04:30:10.518Z,7.05
2019-04-10T04:32:40.058Z,7.00
2019-04-10T04:35:09.121Z,6.75
2019-04-10T04:37:37.949Z,6.68
2019-04-10T04:40:06.831Z,6.71
2019-04-10T04:42:35.420Z,6.60
2019-04-10T04:45:05.159Z,6.41
2019-04-10T04:47:33.753Z,6.35
2019-04-10T04:50:03.443Z,6.36
2019-04-10T04:52:32.759Z,6.35
2019-04-10T04:55:01.944Z,6.55
2019-04-10T04:57:31.805Z,6.64
2019-04-10T05:00:01.213Z,6.64
2019-04-10T05:02:30.276Z,6.67
2019-04-10T05:04:59.001Z,6.69
2019-04-10T05:07:27.537Z,6.63
2019-04-10T05:09:58.696Z,6.41
2019-04-10T05:12:27.593Z,6.40
2019-04-10T05:14:56.263Z,6.26
2019-04-10T05:17:24.760Z,6.19
2019-04-10T05:19:54.567Z,5.98
2019-04-10T05:22:23.141Z,6.01
2019-04-10T05:24:52.328Z,6.08
2019-04-10T05:27:21.182Z,6.19
2019-04-10T05:29:50.575Z,6.35
2019-04-10T05:32:19.248Z,6.65
2019-04-10T05:34:48.328Z,6.60
2019-04-10T05:37:16.967Z,6.63
2019-04-10T05:39:50.456Z,6.68
2019-04-10T05:42:16.803Z,6.82
2019-04-10T05:44:45.486Z,6.72
2019-04-10T05:47:13.988Z,6.77
2019-04-10T05:49:42.672Z,6.66
2019-04-10T05:52:11.227Z,6.54
2019-04-10T05:54:39.851Z,6.50
2019-04-10T05:57:08.441Z,6.45
2019-04-10T05:59:36.936Z,6.34
2019-04-10T06:02:06.799Z,6.43
2019-04-10T06:04:35.815Z,6.52
2019-04-10T06:07:05.257Z,6.63
2019-04-10T06:09:33.983Z,6.62
2019-04-10T06:12:04.072Z,6.81
2019-04-10T06:14:32.823Z,6.86
2019-04-10T06:17:04.079Z,6.93
2019-04-10T06:19:32.403Z,6.82
2019-04-10T06:22:01.148Z,6.81
2019-04-10T06:24:29.977Z,6.78
2019-04-10T06:26:59.614Z,6.86
2019-04-10T06:29:28.821Z,6.84
2019-04-10T06:31:57.368Z,6.64
2019-04-10T06:34:26.011Z,6.71
2019-04-10T06:36:54.551Z,6.84
2019-04-10T06:39:23.348Z,7.06
2019-04-10T06:41:51.869Z,7.23
2019-04-10T06:44:21.675Z,7.23
2019-04-10T06:46:50.370Z,7.78
2019-04-10T06:49:18.993Z,9.71
2019-04-10T06:51:49.398Z,12.03
2019-04-10T06:54:18.512Z,14.18
2019-04-10T06:56:48.551Z,14.35
2019-04-10T06:59:17.443Z,12.89
2019-04-10T07:01:52.331Z,12.69
2019-04-10T07:04:18.132Z,14.15
2019-04-10T07:06:57.309Z,14.30
2019-04-10T07:09:21.389Z,14.09
2019-04-10T07:11:53.436Z,12.79
2019-04-10T07:14:20.405Z,11.60
2019-04-10T07:16:48.971Z,10.69
2019-04-10T07:19:19.627Z,10.56
2019-04-10T07:21:49.163Z,10.47
2019-04-10T07:24:18.874Z,10.75
2019-04-10T07:26:49.342Z,10.49
2019-04-10T07:29:21.098Z,10.45
2019-04-10T07:31:48.904Z,10.18
2019-04-10T07:34:20.016Z,10.06
2019-04-10T07:36:48.482Z,10.56
2019-04-10T07:39:17.376Z,10.82
2019-04-10T07:41:47.257Z,10.86
2019-04-10T07:44:15.939Z,11.32
2019-04-10T07:46:44.545Z,11.68
2019-04-10T07:49:13.158Z,11.83
2019-04-10T07:51:42.523Z,11.71
2019-04-10T07:54:12.003Z,11.85
2019-04-10T07:56:41.767Z,11.71
2019-04-10T07:59:10.943Z,11.80
2019-04-10T08:01:40.489Z,11.95
2019-04-10T08:04:10.457Z,12.12
2019-04-10T08:06:39.537Z,12.11
2019-04-10T08:09:08.822Z,12.12
2019-04-10T08:11:38.144Z,12.40
2019-04-10T08:14:08.455Z,12.53
2019-04-10T08:16:37.171Z,12.54
2019-04-10T08:19:05.848Z,12.53
2019-04-10T08:21:34.379Z,12.48
2019-04-10T08:24:02.956Z,12.60
2019-04-10T08:26:32.524Z,12.60
2019-04-10T08:29:01.635Z,12.80
2019-04-10T08:31:30.803Z,13.17
2019-04-10T08:33:59.418Z,13.23
2019-04-10T08:36:28.052Z,13.19
2019-04-10T08:38:57.025Z,13.16
2019-04-10T08:41:26.830Z,13.23
2019-04-10T08:43:56.728Z,13.19
2019-04-10T08:46:26.094Z,13.22
2019-04-10T08:48:55.941Z,13.43
2019-04-10T08:51:25.578Z,13.50
2019-04-10T08:53:56.650Z,13.75
2019-04-10T08:56:24.824Z,14.03
2019-04-10T08:58:53.296Z,14.36
2019-04-10T09:01:22.962Z,14.18
2019-04-10T09:03:51.592Z,14.11
2019-04-10T09:06:20.219Z,13.94
2019-04-10T09:08:48.966Z,14.03
2019-04-10T09:11:25.579Z,14.23
2019-04-10T09:13:48.868Z,14.64
2019-04-10T09:16:18.373Z,14.97
2019-04-10T09:18:47.655Z,14.95
2019-04-10T09:21:17.330Z,14.80
2019-04-10T09:23:52.450Z,14.89
2019-04-10T09:26:16.223Z,14.90
2019-04-10T09:28:44.776Z,14.95
2019-04-10T09:31:13.573Z,14.95
2019-04-10T09:33:43.144Z,14.96
2019-04-10T09:36:13.449Z,14.89
2019-04-10T09:38:43.903Z,14.57
2019-04-10T09:41:12.402Z,14.49
2019-04-10T09:43:42.075Z,14.46
2019-04-10T09:46:11.293Z,14.69
2019-04-10T09:48:40.112Z,14.97
2019-04-10T09:51:09.760Z,14.93
2019-04-10T09:53:39.183Z,15.28
2019-04-10T09:56:07.810Z,15.45
2019-04-10T09:58:36.389Z,15.53
2019-04-10T10:01:08.345Z,15.52
2019-04-10T10:03:36.841Z,15.42
2019-04-10T10:06:07.006Z,15.29
2019-04-10T10:08:35.954Z,15.23
2019-04-10T10:11:06.050Z,15.08
2019-04-10T10:13:34.705Z,15.33
2019-04-10T10:16:03.301Z,15.45
2019-04-10T10:18:33.111Z,15.27
2019-04-10T10:21:01.961Z,15.25
2019-04-10T10:23:30.731Z,15.07
2019-04-10T10:25:59.656Z,15.34
2019-04-10T10:28:29.228Z,15.29
2019-04-10T10:30:57.951Z,14.95
2019-04-10T10:33:27.833Z,15.00
2019-04-10T10:35:57.673Z,14.78
2019-04-10T10:38:27.363Z,15.13
2019-04-10T10:40:57.051Z,15.21
2019-04-10T10:43:26.605Z,15.18
2019-04-10T10:45:55.471Z,15.44
2019-04-10T10:48:24.093Z,15.83
2019-04-10T10:50:53.330Z,15.92
2019-04-10T10:53:22.054Z,15.81
2019-04-10T10:55:50.667Z,15.78
2019-04-10T10:58:19.694Z,16.02
2019-04-10T11:00:50.115Z,15.99
2019-04-10T11:03:20.320Z,16.45
2019-04-10T11:05:49.155Z,16.60
2019-04-10T11:08:17.816Z,16.61
2019-04-10T11:10:50.718Z,16.38
2019-04-10T11:13:16.780Z,16.01
2019-04-10T11:15:46.040Z,15.93
2019-04-10T11:18:15.779Z,16.17
2019-04-10T11:20:44.421Z,16.45
2019-04-10T11:23:13.351Z,16.75
2019-04-10T11:25:41.968Z,16.52
2019-04-10T11:28:12.422Z,16.55
2019-04-10T11:30:41.211Z,16.22
2019-04-10T11:33:11.007Z,16.60
2019-04-10T11:35:39.780Z,16.55
2019-04-10T11:38:08.656Z,16.62
2019-04-10T11:40:37.640Z,16.73
2019-04-10T11:43:07.728Z,16.75
2019-04-10T11:45:43.140Z,16.57
2019-04-10T11:48:07.850Z,16.40
2019-04-10T11:50:38.283Z,16.72
2019-04-10T11:53:09.454Z,17.11
2019-04-10T11:58:08.611Z,16.85
2019-04-10T12:00:51.018Z,16.89
2019-04-10T12:03:15.246Z,17.01
2019-04-10T12:05:46.214Z,16.81
2019-04-10T12:08:42.140Z,16.49
2019-04-10T12:13:16.979Z,16.52
2019-04-10T12:15:45.052Z,16.53
2019-04-10T12:18:14.135Z,16.73
2019-04-10T12:20:43.112Z,16.83
2019-04-10T12:23:12.576Z,16.60
2019-04-10T12:25:41.431Z,16.57
2019-04-10T12:28:10.051Z,16.92
2019-04-10T12:30:39.527Z,16.92
2019-04-10T12:33:08.166Z,16.82
2019-04-10T12:35:36.741Z,16.80
2019-04-10T12:38:09.749Z,16.73
2019-04-10T12:40:37.601Z,16.88
2019-04-10T12:43:06.063Z,16.64
2019-04-10T12:45:34.696Z,16.59
2019-04-10T12:48:04.133Z,16.81
2019-04-10T12:50:32.854Z,16.54
2019-04-10T12:53:01.547Z,16.50
2019-04-10T12:55:30.468Z,16.41
2019-04-10T12:58:06.554Z,16.40
2019-04-10T13:00:29.913Z,16.49
2019-04-10T13:02:58.761Z,16.42
2019-04-10T13:05:27.395Z,16.34
2019-04-10T13:07:56.195Z,16.55
2019-04-10T13:10:24.941Z,16.64
2019-04-10T13:12:53.583Z,16.85
2019-04-10T13:15:23.176Z,16.61
2019-04-10T13:17:53.109Z,16.42
2019-04-10T13:20:21.930Z,16.56
2019-04-10T13:22:50.722Z,16.65
2019-04-10T13:25:20.165Z,16.52
2019-04-10T13:27:48.718Z,16.29
2019-04-10T13:30:18.697Z,16.35
2019-04-10T13:32:47.959Z,16.36
2019-04-10T13:35:17.710Z,16.32
2019-04-10T13:37:46.621Z,16.53
2019-04-10T13:40:15.324Z,16.49
2019-04-10T13:42:43.969Z,16.43
2019-04-10T13:45:13.145Z,16.36
2019-04-10T13:47:42.794Z,16.14
2019-04-10T13:50:12.617Z,16.27
2019-04-10T13:52:42.958Z,16.23
2019-04-10T13:55:11.803Z,16.14
2019-04-10T13:57:40.345Z,16.15
2019-04-10T14:00:11.374Z,16.15
2019-04-10T14:02:40.059Z,16.05
2019-04-10T14:05:11.502Z,16.23
2019-04-10T14:07:40.358Z,16.31
2019-04-10T14:10:10.373Z,16.34
2019-04-10T14:12:39.091Z,16.26
2019-04-10T14:15:08.108Z,16.22
2019-04-10T14:17:37.620Z,16.32
2019-04-10T14:20:07.113Z,16.30
2019-04-10T14:22:37.908Z,16.37
2019-04-10T14:25:09.606Z,16.26
2019-04-10T14:27:38.705Z,16.08
2019-04-10T14:30:09.571Z,16.24
2019-04-10T14:32:38.090Z,16.23
2019-04-10T14:35:08.538Z,16.30
2019-04-10T14:37:38.087Z,16.16
2019-04-10T14:40:09.594Z,16.24
2019-04-10T14:42:38.437Z,16.13
2019-04-10T14:45:09.022Z,15.85
2019-04-10T14:47:37.661Z,15.72
2019-04-10T14:50:07.535Z,15.80
2019-04-10T14:52:37.131Z,15.83
2019-04-10T14:55:06.276Z,15.59
2019-04-10T14:57:34.988Z,15.69
2019-04-10T15:00:08.417Z,15.76
2019-04-10T15:02:37.134Z,15.74
2019-04-10T15:05:08.081Z,15.78
2019-04-10T15:07:37.298Z,15.72
2019-04-10T15:10:08.605Z,15.62
2019-04-10T15:12:37.426Z,15.54
2019-04-10T15:15:06.605Z,15.51
2019-04-10T15:17:35.190Z,15.51
2019-04-10T15:20:04.901Z,15.69
2019-04-10T15:22:33.860Z,15.84
2019-04-10T15:25:02.487Z,15.75
2019-04-10T15:27:30.970Z,15.73
2019-04-10T15:29:59.433Z,15.43
2019-04-10T15:32:28.024Z,15.35
2019-04-10T15:34:56.718Z,15.39
2019-04-10T15:37:25.350Z,15.42
2019-04-10T15:39:54.042Z,15.45
2019-04-10T15:42:23.785Z,15.48
2019-04-10T15:44:52.457Z,15.45
2019-04-10T15:47:23.066Z,15.33
2019-04-10T15:49:51.633Z,15.28
2019-04-10T15:52:20.488Z,15.24
2019-04-10T15:54:50.026Z,15.22
2019-04-10T15:57:19.253Z,15.21
2019-04-10T15:59:48.317Z,15.21
2019-04-10T16:02:17.040Z,15.22
2019-04-10T16:04:45.731Z,15.05
2019-04-10T16:07:14.671Z,14.94
2019-04-10T16:09:49.906Z,14.92
2019-04-10T16:12:16.602Z,14.79
2019-04-10T16:14:46.481Z,14.61
2019-04-10T16:17:24.014Z,14.56
2019-04-10T16:19:54.466Z,14.53
2019-04-10T16:22:31.290Z,14.49
2019-04-10T16:25:01.566Z,14.59
2019-04-10T16:27:30.709Z,14.72
2019-04-10T16:30:02.082Z,14.66
2019-04-10T16:32:30.052Z,14.46
2019-04-10T16:34:58.911Z,14.25
2019-04-10T16:37:27.692Z,14.20
2019-04-10T16:40:00.390Z,14.15
2019-04-10T16:42:26.704Z,13.93
2019-04-10T16:44:55.455Z,13.88
2019-04-10T16:47:23.990Z,14.03
2019-04-10T16:49:53.137Z,14.09
2019-04-10T16:52:23.016Z,13.98
2019-04-10T16:54:51.761Z,13.71
2019-04-10T16:57:20.704Z,13.70
2019-04-10T16:59:49.519Z,13.84
2019-04-10T17:02:18.134Z,13.57
2019-04-10T17:04:46.736Z,13.34
2019-04-10T17:07:16.946Z,13.29
2019-04-10T17:09:45.633Z,13.40
2019-04-10T17:12:14.192Z,13.30
2019-04-10T17:14:43.886Z,13.12
2019-04-10T17:17:12.741Z,12.94
2019-04-10T17:19:48.934Z,12.82
2019-04-10T17:22:11.750Z,12.88
2019-04-10T17:24:41.600Z,12.85
2019-04-10T17:27:11.174Z,12.66
2019-04-10T17:29:40.986Z,12.60
2019-04-10T17:32:09.560Z,12.59
2019-04-10T17:34:38.936Z,12.55
2019-04-10T17:37:09.582Z,12.58
2019-04-10T17:39:39.630Z,12.42
2019-04-10T17:42:08.294Z,12.37
2019-04-10T17:44:38.113Z,12.15
2019-04-10T17:47:09.543Z,12.08
2019-04-10T17:49:37.180Z,12.10
2019-04-10T17:52:06.332Z,12.16
2019-04-10T17:54:34.930Z,12.15
2019-04-10T17:57:04.524Z,12.28
2019-04-10T17:59:34.237Z,12.25
2019-04-10T18:02:07.526Z,12.03
2019-04-10T18:04:36.067Z,11.82
2019-04-10T18:07:05.895Z,11.79
2019-04-10T18:09:34.742Z,11.79
2019-04-10T18:12:03.937Z,11.54
2019-04-10T18:14:36.351Z,11.52
2019-04-10T18:17:02.819Z,11.44
2019-04-10T18:19:32.392Z,11.34
2019-04-10T18:22:01.120Z,11.30
2019-04-10T18:24:30.449Z,11.15
2019-04-10T18:27:00.052Z,11.12
2019-04-10T18:29:30.936Z,11.24
2019-04-10T18:32:00.965Z,11.21
2019-04-10T18:34:30.228Z,11.02
2019-04-10T18:36:58.766Z,10.87
2019-04-10T18:39:27.407Z,10.92
2019-04-10T18:41:57.060Z,10.94
2019-04-10T18:44:26.410Z,10.87
2019-04-10T18:46:54.990Z,10.80
2019-04-10T18:49:23.572Z,10.81
2019-04-10T18:51:52.200Z,10.90
2019-04-10T18:54:21.036Z,10.93
2019-04-10T18:56:49.715Z,10.87
2019-04-10T18:59:22.656Z,10.66
2019-04-10T19:01:53.608Z,10.55
2019-04-10T19:04:30.734Z,10.63
2019-04-10T19:07:02.310Z,10.79
2019-04-10T19:09:32.660Z,10.79
2019-04-10T19:12:02.337Z,10.84
2019-04-10T19:14:35.861Z,10.70
2019-04-10T19:17:02.538Z,10.57
2019-04-10T19:19:32.487Z,10.44
2019-04-10T19:22:02.145Z,10.41
2019-04-10T19:24:32.392Z,10.32
2019-04-10T19:27:02.110Z,10.33
2019-04-10T19:29:31.804Z,10.28
2019-04-10T19:34:39.778Z,10.31
2019-04-10T19:37:08.351Z,10.32
2019-04-10T19:39:38.281Z,10.45
2019-04-10T19:42:07.081Z,10.45
2019-04-10T19:44:35.700Z,10.28
2019-04-10T19:47:04.487Z,10.17
2019-04-10T19:49:33.049Z,10.17
2019-04-10T19:52:02.330Z,10.19
2019-04-10T19:54:31.583Z,10.23
2019-04-10T19:57:01.336Z,10.15
2019-04-10T19:59:29.943Z,10.05
2019-04-10T20:01:58.525Z,9.89
2019-04-10T20:04:28.254Z,9.83
2019-04-10T20:06:57.001Z,9.86
2019-04-10T20:09:25.633Z,9.80
2019-04-10T20:11:56.975Z,9.83
2019-04-10T20:14:24.632Z,9.99
2019-04-10T20:16:53.456Z,9.89
2019-04-10T20:19:22.426Z,9.88
2019-04-10T20:21:52.442Z,9.80
2019-04-10T20:24:21.502Z,9.67
2019-04-10T20:26:50.169Z,9.56
2019-04-10T20:29:19.184Z,9.33
2019-04-10T20:31:49.812Z,9.23
2019-04-10T20:34:19.136Z,9.06
2019-04-10T20:36:49.013Z,9.10
2019-04-10T20:39:18.013Z,9.17
2019-04-10T20:41:52.348Z,9.23
2019-04-10T20:44:16.862Z,9.14
2019-04-10T20:46:46.554Z,9.26
2019-04-10T20:49:16.323Z,9.37
2019-04-10T20:51:45.987Z,9.19
2019-04-10T20:54:15.266Z,9.09
2019-04-10T20:56:43.722Z,8.99
2019-04-10T20:59:12.261Z,9.01
2019-04-10T21:01:41.495Z,8.88
2019-04-10T21:04:10.185Z,8.64
2019-04-10T21:06:41.653Z,8.47
2019-04-10T21:09:09.754Z,8.57
2019-04-10T21:11:39.761Z,8.41
2019-04-10T21:14:09.247Z,8.33
2019-04-10T21:16:37.947Z,8.30
2019-04-10T21:19:06.722Z,8.39
2019-04-10T21:21:35.485Z,8.52
2019-04-10T21:24:04.850Z,8.69
2019-04-10T21:26:34.640Z,8.63
2019-04-10T21:29:04.911Z,8.71
2019-04-10T21:31:36.139Z,8.70
2019-04-10T21:34:13.704Z,8.61
2019-04-10T21:36:43.430Z,8.64
2019-04-10T21:39:12.457Z,8.58
2019-04-10T21:41:42.016Z,8.52
2019-04-10T21:44:11.508Z,8.52
2019-04-10T21:46:41.043Z,8.53
2019-04-10T21:49:09.614Z,8.54
2019-04-10T21:51:38.123Z,8.65
2019-04-10T21:54:06.727Z,8.75
2019-04-10T21:56:35.346Z,8.87
2019-04-10T21:59:03.996Z,8.87
2019-04-10T22:01:32.774Z,8.70
2019-04-10T22:04:02.704Z,8.55
2019-04-10T22:06:39.747Z,8.40
2019-04-10T22:09:20.795Z,8.35
2019-04-10T22:11:51.208Z,8.14
2019-04-10T22:14:19.824Z,8.16
2019-04-10T22:16:48.488Z,8.13
2019-04-10T22:19:17.100Z,8.17
2019-04-10T22:21:46.200Z,8.07
2019-04-10T22:24:15.752Z,8.05
2019-04-10T22:26:44.579Z,8.06
2019-04-10T22:29:14.159Z,8.15
2019-04-10T22:31:43.770Z,8.12
2019-04-10T22:34:13.560Z,7.90
2019-04-10T22:36:42.288Z,7.86
2019-04-10T22:39:12.599Z,7.65
2019-04-10T22:41:41.137Z,7.55
2019-04-10T22:44:09.848Z,7.28
2019-04-10T22:46:38.495Z,7.24
2019-04-10T22:49:08.271Z,7.13
2019-04-10T22:51:37.683Z,6.85
2019-04-10T22:54:06.297Z,6.83
2019-04-10T22:56:35.769Z,6.98
2019-04-10T22:59:04.331Z,7.14
2019-04-10T23:01:33.427Z,7.31
2019-04-10T23:04:02.083Z,7.48
2019-04-10T23:06:31.389Z,7.52
2019-04-10T23:09:00.172Z,7.40
2019-04-10T23:11:35.510Z,7.40
2019-04-10T23:13:59.094Z,7.32
2019-04-10T23:16:28.367Z,7.34
2019-04-10T23:18:58.168Z,7.21
2019-04-10T23:21:26.851Z,6.90
2019-04-10T23:23:55.478Z,6.88
2019-04-10T23:26:25.113Z,6.92
2019-04-10T23:28:53.795Z,6.88
2019-04-10T23:31:23.714Z,7.01
2019-04-10T23:33:52.469Z,7.01
2019-04-10T23:36:23.063Z,7.07
2019-04-10T23:38:52.112Z,7.16
2019-04-10T23:41:21.204Z,7.15
2019-04-10T23:43:49.694Z,6.99
2019-04-10T23:46:18.241Z,6.79
2019-04-10T23:48:46.845Z,6.56
2019-04-10T23:51:15.516Z,6.43
2019-04-10T23:53:44.764Z,6.20
2019-04-10T23:56:13.673Z,6.04
2019-04-10T23:58:42.382Z,5.89
